Terminal Aerodrome Forecast
Issued by NWS Cleveland, OH

Home | Current Version | Previous Version | Graphics & Text | Print | Product List | Glossary On
Versions: 1 2 3 4 5 6 7 8 9 10 11 12 13 14 15 16 17 18 19
000
FTUS41 KCLE 080535
TAFYNG
TAF
KYNG 080535Z 0806/0906 17006KT P6SM SCT050 OVC120
     FM081800 20008KT 5SM -RA BR OVC025
     FM082200 25008KT 2SM -SN OVC012=

USA.gov is the U.S. government's official web portal to all federal, state and local government web resources and services.